createdAt,value
2022-11-29T00:00:17.672Z,13.27
2022-11-29T00:05:21.346Z,14.07
2022-11-29T00:10:26.443Z,13.38
2022-11-29T00:15:30.181Z,14.63
2022-11-29T00:20:35.230Z,13.40
2022-11-29T00:25:40.996Z,14.20
2022-11-29T00:30:44.749Z,13.32
2022-11-29T00:35:48.492Z,14.07
2022-11-29T00:40:53.979Z,14.50
2022-11-29T00:45:57.904Z,15.27
2022-11-29T00:51:01.572Z,14.90
2022-11-29T00:56:07.455Z,14.60
2022-11-29T01:01:11.778Z,13.63
2022-11-29T01:06:17.155Z,13.75
2022-11-29T01:11:24.020Z,13.52
2022-11-29T01:16:28.939Z,13.65
2022-11-29T01:21:32.757Z,14.10
2022-11-29T01:26:37.816Z,12.82
2022-11-29T01:31:41.621Z,12.55
2022-11-29T01:36:45.329Z,11.80
2022-11-29T01:41:50.418Z,12.35
2022-11-29T01:46:55.305Z,11.27
2022-11-29T01:52:03.853Z,12.32
2022-11-29T01:57:10.888Z,11.57
2022-11-29T02:07:19.786Z,12.48
2022-11-29T02:12:30.825Z,9.98
2022-11-29T02:17:42.938Z,10.13
2022-11-29T02:22:54.910Z,10.75
2022-11-29T02:28:35.016Z,10.50
2022-11-29T02:34:08.127Z,11.38
2022-11-29T02:39:40.508Z,10.20
2022-11-29T02:45:08.300Z,10.52
2022-11-29T02:50:25.555Z,9.93
2022-11-29T02:55:34.591Z,10.23
2022-11-29T03:00:47.567Z,9.63
2022-11-29T03:05:58.418Z,9.90
2022-11-29T03:11:07.855Z,9.40
2022-11-29T03:16:19.461Z,9.68
2022-11-29T03:21:42.078Z,9.13
2022-11-29T03:26:50.601Z,8.70
2022-11-29T03:32:01.534Z,8.52
2022-11-29T03:37:12.464Z,8.38
2022-11-29T03:42:22.976Z,8.57
2022-11-29T03:47:32.571Z,8.30
2022-11-29T03:52:47.690Z,8.27
2022-11-29T03:58:02.401Z,8.30
2022-11-29T04:03:38.571Z,8.85
2022-11-29T04:09:13.782Z,8.63
2022-11-29T04:14:32.230Z,9.23
2022-11-29T04:20:03.610Z,8.98
2022-11-29T04:25:35.821Z,8.82
2022-11-29T04:30:49.180Z,7.97
2022-11-29T04:36:25.298Z,8.65
2022-11-29T04:41:47.379Z,8.00
2022-11-29T04:47:08.824Z,8.10
2022-11-29T04:52:37.947Z,9.00
2022-11-29T04:57:49.111Z,7.25
2022-11-29T05:02:57.367Z,7.53
2022-11-29T05:08:17.362Z,6.82
2022-11-29T05:13:32.736Z,7.63
2022-11-29T05:19:06.480Z,7.13
2022-11-29T05:24:25.132Z,7.35
2022-11-29T05:29:38.660Z,7.25
2022-11-29T05:34:59.222Z,7.60
2022-11-29T05:40:28.715Z,8.02
2022-11-29T05:45:39.519Z,8.25
2022-11-29T05:50:48.962Z,7.90
2022-11-29T05:56:03.720Z,8.40
2022-11-29T06:01:19.536Z,8.88
2022-11-29T06:06:33.815Z,6.85
2022-11-29T06:11:43.480Z,7.68
2022-11-29T06:17:19.932Z,7.78
2022-11-29T06:22:43.030Z,6.82
2022-11-29T06:28:04.572Z,7.90
2022-11-29T06:33:18.022Z,9.25
2022-11-29T06:38:24.778Z,7.63
2022-11-29T06:43:29.180Z,7.50
2022-11-29T06:48:40.313Z,8.10
2022-11-29T06:53:49.528Z,8.10
2022-11-29T06:59:02.425Z,7.47
2022-11-29T07:04:26.490Z,8.27
2022-11-29T07:09:35.650Z,7.35
2022-11-29T07:14:40.011Z,7.82
2022-11-29T07:19:54.820Z,9.07
2022-11-29T07:25:04.555Z,8.80
2022-11-29T07:30:15.358Z,8.82
2022-11-29T07:35:25.753Z,8.98
2022-11-29T07:40:37.963Z,8.65
2022-11-29T07:45:42.024Z,9.20
2022-11-29T07:50:47.371Z,9.68
2022-11-29T07:55:51.770Z,8.38
2022-11-29T08:00:55.593Z,10.27
2022-11-29T08:06:00.791Z,10.38
2022-11-29T08:11:10.583Z,11.73
2022-11-29T08:16:18.648Z,12.25
2022-11-29T08:21:23.772Z,11.32
2022-11-29T08:26:31.567Z,10.98
2022-11-29T08:31:36.000Z,11.02
2022-11-29T08:36:41.036Z,11.55
2022-11-29T08:41:45.125Z,13.52
2022-11-29T08:47:06.397Z,12.65
2022-11-29T08:52:30.670Z,13.18
2022-11-29T08:57:41.635Z,11.93
2022-11-29T09:02:45.444Z,12.57
2022-11-29T09:07:50.639Z,12.75
2022-11-29T09:12:54.479Z,12.60
2022-11-29T09:17:58.559Z,13.15
2022-11-29T09:23:04.060Z,14.07
2022-11-29T09:28:08.673Z,13.20
2022-11-29T09:33:12.360Z,12.40
2022-11-29T09:38:17.418Z,12.05
2022-11-29T09:43:30.947Z,10.85
2022-11-29T09:49:04.868Z,10.55
2022-11-29T09:54:24.529Z,9.70
2022-11-29T09:59:33.486Z,10.13
2022-11-29T10:04:42.088Z,10.50
2022-11-29T10:09:51.567Z,10.15
2022-11-29T10:15:03.546Z,10.88
2022-11-29T10:20:13.890Z,7.88
2022-11-29T10:25:26.049Z,8.55
2022-11-29T10:30:29.909Z,7.97
2022-11-29T10:35:34.825Z,9.27
2022-11-29T10:40:43.153Z,10.00
2022-11-29T10:45:50.690Z,9.93
2022-11-29T10:50:54.834Z,9.70
2022-11-29T10:56:03.088Z,9.90
2022-11-29T11:01:08.550Z,10.20
2022-11-29T11:06:15.612Z,11.00
2022-11-29T11:11:28.250Z,10.25
2022-11-29T11:16:37.051Z,9.68
2022-11-29T11:21:41.486Z,9.65
2022-11-29T11:26:47.026Z,9.48
2022-11-29T11:31:56.123Z,10.38
2022-11-29T11:37:20.004Z,11.23
2022-11-29T11:42:38.105Z,9.35
2022-11-29T11:47:45.739Z,9.60
2022-11-29T11:52:53.454Z,10.13
2022-11-29T11:58:09.676Z,11.20
2022-11-29T12:08:34.018Z,10.98
2022-11-29T12:13:45.536Z,11.15
2022-11-29T12:18:53.069Z,10.70
2022-11-29T12:24:03.411Z,10.35
2022-11-29T12:29:15.394Z,11.98
2022-11-29T12:34:43.258Z,13.38
2022-11-29T12:39:57.591Z,11.75
2022-11-29T12:45:20.433Z,15.32
2022-11-29T12:50:36.474Z,13.38
2022-11-29T12:55:50.085Z,12.18
2022-11-29T13:01:07.227Z,12.80
2022-11-29T13:06:22.196Z,12.77
2022-11-29T13:11:30.237Z,12.13
2022-11-29T13:16:46.452Z,11.70
2022-11-29T13:21:58.793Z,10.73
2022-11-29T13:27:05.496Z,12.32
2022-11-29T13:32:32.575Z,12.57
2022-11-29T13:37:48.419Z,11.55
2022-11-29T13:43:03.343Z,13.15
2022-11-29T13:53:49.150Z,12.48
2022-11-29T13:58:54.924Z,13.60
2022-11-29T14:04:05.518Z,13.70
2022-11-29T14:09:25.858Z,14.57
2022-11-29T14:14:33.502Z,13.20
2022-11-29T14:19:38.167Z,14.27
2022-11-29T14:24:44.527Z,13.70
2022-11-29T14:29:55.695Z,14.82
2022-11-29T14:35:03.176Z,16.55
2022-11-29T14:40:23.588Z,14.93
2022-11-29T14:45:29.714Z,15.88
2022-11-29T14:50:36.847Z,16.38
2022-11-29T15:01:09.967Z,15.70
2022-11-29T15:06:25.206Z,15.80
2022-11-29T15:11:41.208Z,15.93
2022-11-29T15:16:57.372Z,16.33
2022-11-29T15:22:07.418Z,16.03
2022-11-29T15:27:14.689Z,18.73
2022-11-29T15:32:24.078Z,16.70
2022-11-29T15:37:42.742Z,15.85
2022-11-29T15:42:52.790Z,14.13
2022-11-29T15:47:57.138Z,15.70
2022-11-29T15:53:06.203Z,14.65
2022-11-29T15:58:15.106Z,14.95
2022-11-29T16:03:25.311Z,16.67
2022-11-29T16:08:34.121Z,14.00
2022-11-29T16:13:41.054Z,15.02
2022-11-29T16:18:46.296Z,14.70
2022-11-29T16:23:50.321Z,15.75
2022-11-29T16:28:57.930Z,15.52
2022-11-29T16:34:09.771Z,16.30
2022-11-29T16:39:23.771Z,15.55
2022-11-29T16:45:30.994Z,15.85
2022-11-29T16:50:34.993Z,15.13
2022-11-29T16:55:38.784Z,14.50
2022-11-29T17:00:44.298Z,14.68
2022-11-29T17:05:48.159Z,14.65
2022-11-29T17:10:51.777Z,16.42
2022-11-29T17:15:56.975Z,15.48
2022-11-29T17:21:00.879Z,17.17
2022-11-29T17:26:04.771Z,14.73
2022-11-29T17:31:15.019Z,16.08
2022-11-29T17:36:21.015Z,14.95
2022-11-29T17:41:26.142Z,14.48
2022-11-29T17:46:33.003Z,15.68
2022-11-29T17:51:55.452Z,15.98
2022-11-29T17:56:59.386Z,16.85
2022-11-29T18:02:04.719Z,19.48
2022-11-29T18:07:08.452Z,17.63
2022-11-29T18:12:12.400Z,18.38
2022-11-29T18:17:20.080Z,17.52
2022-11-29T18:22:23.774Z,15.82
2022-11-29T18:27:27.661Z,17.20
2022-11-29T18:32:33.372Z,16.58
2022-11-29T18:38:12.889Z,16.13
2022-11-29T18:43:00.828Z,16.90
2022-11-29T18:48:06.772Z,16.50
2022-11-29T18:53:10.583Z,15.27
2022-11-29T18:58:14.368Z,15.57
2022-11-29T19:03:19.497Z,16.83
2022-11-29T19:08:23.347Z,16.83
2022-11-29T19:13:27.042Z,16.95
2022-11-29T19:18:32.862Z,17.08
2022-11-29T19:23:36.927Z,17.55
2022-11-29T19:28:42.140Z,16.95
2022-11-29T19:33:48.423Z,17.75
2022-11-29T19:38:54.058Z,16.27
2022-11-29T19:43:59.406Z,15.05
2022-11-29T19:49:06.867Z,15.90
2022-11-29T19:54:12.220Z,17.05
2022-11-29T19:59:16.299Z,17.20
2022-11-29T20:04:22.126Z,16.67
2022-11-29T20:09:28.817Z,16.48
2022-11-29T20:14:32.580Z,16.33
2022-11-29T20:19:38.334Z,17.33
2022-11-29T20:24:45.585Z,18.30
2022-11-29T20:29:50.288Z,16.85
2022-11-29T20:34:56.639Z,17.58
2022-11-29T20:40:07.676Z,16.43
2022-11-29T20:45:13.317Z,16.58
2022-11-29T20:50:23.815Z,16.83
2022-11-29T20:55:27.942Z,15.25
2022-11-29T21:00:32.141Z,16.65
2022-11-29T21:05:40.231Z,16.48
2022-11-29T21:10:45.943Z,16.77
2022-11-29T21:15:50.841Z,14.93
2022-11-29T21:21:05.333Z,16.15
2022-11-29T21:26:15.164Z,15.63
2022-11-29T21:31:20.043Z,15.68
2022-11-29T21:36:25.475Z,16.30
2022-11-29T21:41:29.428Z,16.05
2022-11-29T21:46:33.102Z,15.32
2022-11-29T21:51:38.122Z,15.65
2022-11-29T21:56:41.863Z,16.65
2022-11-29T22:01:45.749Z,17.50
2022-11-29T22:06:50.973Z,15.80
2022-11-29T22:11:54.919Z,19.02
2022-11-29T22:17:00.309Z,16.25
2022-11-29T22:22:09.221Z,17.58
2022-11-29T22:27:12.999Z,16.38
2022-11-29T22:32:16.732Z,18.00
2022-11-29T22:37:21.784Z,18.38
2022-11-29T22:42:25.891Z,16.92
2022-11-29T22:47:29.588Z,18.52
2022-11-29T22:52:34.616Z,17.13
2022-11-29T22:57:38.329Z,17.23
2022-11-29T23:02:42.042Z,17.08
2022-11-29T23:07:47.823Z,17.80
2022-11-29T23:12:51.712Z,16.70
2022-11-29T23:17:55.502Z,17.13
2022-11-29T23:23:00.662Z,16.70
2022-11-29T23:28:04.409Z,17.23
2022-11-29T23:33:08.097Z,17.50
2022-11-29T23:38:13.217Z,18.02
2022-11-29T23:43:16.926Z,18.60
2022-11-29T23:48:20.754Z,16.45
2022-11-29T23:53:25.854Z,15.80
2022-11-29T23:58:30.795Z,15.48
